Time;durP1;ratioP1;P1;durP2;ratioP2;P2;SDS_P1;SDS_P2;PMS_P1;PMS_P2;Temp;Humidity;BMP_temperature;BMP_pressure;BME280_temperature;BME280_humidity;BME280_pressure;Samples;Min_cycle;Max_cycle;Signal;HPM_P1;HPM_P2
2022/01/24 00:00:38;;;;;;;111.70;41.10;;;;;;;-4.26;70.33;102014.02;130438;1267;108908;-77
2022/01/24 00:03:45;;;;;;;106.10;41.20;;;;;;;-4.22;70.40;102019.38;130351;1266;108880;-79
2022/01/24 00:06:51;;;;;;;107.40;41.30;;;;;;;-4.20;70.49;102023.35;130430;1267;108812;-77
2022/01/24 00:09:59;;;;;;;101.30;40.10;;;;;;;-4.16;70.50;102024.86;130527;1267;108786;-79
2022/01/24 00:16:32;;;;;;;105.60;40.10;;;;;;;-4.08;70.29;102016.80;130294;1267;106727;-79
2022/01/24 00:26:46;;;;;;;96.20;38.40;;;;;;;-4.04;70.37;102026.15;130245;1268;108920;-75
2022/01/24 00:29:51;;;;;;;93.20;36.80;;;;;;;-4.03;70.48;102030.11;130179;1268;108756;-75
2022/01/24 00:32:57;;;;;;;86.00;34.20;;;;;;;-3.97;70.68;102030.91;130344;1267;106677;-76
2022/01/24 00:36:02;;;;;;;90.10;34.90;;;;;;;-3.88;70.67;102033.96;130418;1266;108744;-80
2022/01/24 00:39:09;;;;;;;87.00;33.30;;;;;;;-3.76;70.70;102030.17;130400;1267;108990;-81
2022/01/24 00:42:25;;;;;;;83.20;32.20;;;;;;;-3.61;70.52;102027.73;130481;1267;107390;-79
2022/01/24 00:45:36;;;;;;;96.00;35.90;;;;;;;-3.44;70.50;102028.73;130489;1267;108832;-76
2022/01/24 00:49:10;;;;;;;93.60;36.70;;;;;;;-3.35;70.46;102033.83;130468;1267;109935;-76
2022/01/24 00:55:39;;;;;;;96.20;38.30;;;;;;;-3.22;70.52;102037.14;130536;1267;107664;-76
2022/01/24 00:58:45;;;;;;;93.00;36.70;;;;;;;-3.17;70.62;102037.24;130510;1267;107959;-76
2022/01/24 01:01:50;;;;;;;88.40;35.60;;;;;;;-3.11;70.62;102034.03;130463;1266;107148;-77
2022/01/24 01:18:28;;;;;;;76.90;32.50;;;;;;;-3.03;70.94;102016.86;130373;1267;108814;-78
2022/01/24 01:21:34;;;;;;;78.60;32.40;;;;;;;-3.03;71.08;102013.39;130334;1266;108943;-78
2022/01/24 01:24:45;;;;;;;74.20;30.80;;;;;;;-3.03;71.18;102015.30;130376;1267;108583;-78
2022/01/24 01:27:53;;;;;;;69.30;29.00;;;;;;;-3.00;71.08;102013.34;130342;1267;108975;-78
2022/01/24 01:31:03;;;;;;;63.20;28.10;;;;;;;-3.00;71.22;102007.92;130349;1267;108630;-79
2022/01/24 01:34:22;;;;;;;65.50;28.90;;;;;;;-2.96;71.36;102009.61;130378;1264;108727;-78
2022/01/24 01:37:52;;;;;;;65.10;28.20;;;;;;;-2.92;71.38;102008.16;130354;1267;109078;-79
2022/01/24 01:55:09;;;;;;;45.70;19.80;;;;;;;-2.74;71.95;102018.67;130408;1267;108876;-77
2022/01/24 01:58:17;;;;;;;50.20;21.80;;;;;;;-2.58;72.09;102013.72;130401;1267;108755;-78
2022/01/24 02:01:22;;;;;;;47.90;19.80;;;;;;;-2.44;72.00;102014.34;130388;1267;108602;-78
2022/01/24 02:04:27;;;;;;;47.60;20.60;;;;;;;-2.29;71.90;102010.42;130360;1267;106596;-79
2022/01/24 02:07:33;;;;;;;50.90;21.90;;;;;;;-2.19;71.91;102012.17;130323;1267;108748;-81
2022/01/24 02:10:41;;;;;;;45.50;20.10;;;;;;;-2.15;71.87;102011.05;130382;1267;108723;-79
2022/01/24 02:13:48;;;;;;;43.10;20.10;;;;;;;-2.07;71.88;102018.40;130544;1267;106881;-78
2022/01/24 02:16:59;;;;;;;41.90;19.40;;;;;;;-2.05;71.90;102024.27;130502;1267;108742;-79
2022/01/24 02:20:25;;;;;;;44.20;19.60;;;;;;;-2.02;72.17;102029.27;130586;1267;108960;-79
2022/01/24 02:23:39;;;;;;;39.10;19.70;;;;;;;-1.99;72.31;102025.73;130554;1267;108807;-80
2022/01/24 02:26:48;;;;;;;36.90;18.30;;;;;;;-1.98;71.88;102025.37;130334;1267;108641;-76
2022/01/24 02:30:07;;;;;;;42.10;19.20;;;;;;;-1.95;72.06;102026.70;130384;1267;108589;-77
2022/01/24 02:33:13;;;;;;;39.70;19.40;;;;;;;-1.95;72.31;102029.32;130426;1267;106803;-79
2022/01/24 02:36:22;;;;;;;42.60;18.90;;;;;;;-1.93;72.25;102026.85;130437;1266;108756;-78
2022/01/24 02:39:45;;;;;;;39.90;18.70;;;;;;;-1.91;72.27;102025.43;130440;1266;107408;-78
2022/01/24 02:49:35;;;;;;;37.70;18.70;;;;;;;-1.89;72.53;102019.10;130427;1267;108772;-81
2022/01/24 02:52:41;;;;;;;41.50;19.60;;;;;;;-1.88;72.61;102020.30;130319;1266;108766;-77
2022/01/24 02:55:47;;;;;;;40.00;18.90;;;;;;;-1.87;72.55;102021.84;130366;1267;108876;-78
2022/01/24 02:58:52;;;;;;;40.10;17.90;;;;;;;-1.84;72.77;102022.32;130438;1267;106803;-76
2022/01/24 03:01:57;;;;;;;37.30;18.90;;;;;;;-1.77;72.71;102015.55;130400;1267;108963;-77
2022/01/24 03:05:03;;;;;;;39.70;17.00;;;;;;;-1.68;72.57;102011.17;130329;1267;108591;-76
2022/01/24 03:08:09;;;;;;;39.00;18.40;;;;;;;-1.60;72.36;102013.45;130363;1267;108693;-80
2022/01/24 03:11:16;;;;;;;39.70;19.40;;;;;;;-1.55;72.42;102015.80;130327;1267;108746;-78
2022/01/24 03:14:23;;;;;;;38.90;19.30;;;;;;;-1.51;72.66;102017.98;130338;1267;108597;-78
2022/01/24 03:17:29;;;;;;;39.60;18.90;;;;;;;-1.50;72.40;102019.70;130406;1267;108883;-79
2022/01/24 03:20:35;;;;;;;44.20;20.10;;;;;;;-1.51;72.30;102021.11;130388;1267;108847;-79
2022/01/24 03:23:40;;;;;;;39.10;19.60;;;;;;;-1.52;72.42;102024.98;130364;1267;108951;-79
2022/01/24 03:26:47;;;;;;;38.50;18.30;;;;;;;-1.54;72.43;102021.37;130325;1267;108783;-78
2022/01/24 03:29:52;;;;;;;37.60;19.30;;;;;;;-1.55;72.50;102012.66;130395;1267;107207;-79
2022/01/24 03:32:57;;;;;;;44.50;20.50;;;;;;;-1.60;72.38;102019.23;130563;1267;108927;-78
2022/01/24 03:36:03;;;;;;;37.50;20.00;;;;;;;-1.64;72.42;102011.96;130418;1267;108098;-78
2022/01/24 03:39:08;;;;;;;43.40;20.30;;;;;;;-1.69;72.43;102007.20;130391;1267;108707;-77
2022/01/24 03:42:14;;;;;;;41.20;20.80;;;;;;;-1.71;72.72;102004.09;130440;1267;106721;-78
2022/01/24 03:45:25;;;;;;;44.60;21.10;;;;;;;-1.72;72.64;102011.26;130533;1267;108705;-77
2022/01/24 03:48:38;;;;;;;42.50;20.30;;;;;;;-1.74;72.75;102013.57;130501;1267;108654;-76
2022/01/24 03:51:44;;;;;;;47.90;21.80;;;;;;;-1.76;73.08;102015.54;130339;1267;108667;-76
2022/01/24 03:54:51;;;;;;;49.20;20.60;;;;;;;-1.77;72.66;102013.98;130437;1267;108705;-76
2022/01/24 03:57:56;;;;;;;45.60;19.70;;;;;;;-1.74;72.90;102015.66;130495;1267;107969;-76
2022/01/24 04:01:04;;;;;;;45.40;21.00;;;;;;;-1.66;72.93;102025.08;130482;1267;109060;-79
2022/01/24 04:04:10;;;;;;;41.60;19.40;;;;;;;-1.55;72.99;102018.08;130347;1267;108768;-78
2022/01/24 04:07:15;;;;;;;40.00;20.70;;;;;;;-1.47;72.72;102011.27;130456;1267;107905;-77
2022/01/24 04:10:21;;;;;;;42.80;21.20;;;;;;;-1.41;72.53;102014.45;130498;1267;108873;-78
2022/01/24 04:13:31;;;;;;;42.90;20.80;;;;;;;-1.37;72.55;102011.22;130430;1267;108770;-77
2022/01/24 04:16:40;;;;;;;43.40;20.50;;;;;;;-1.36;72.67;102011.04;130491;1267;108936;-78
2022/01/24 04:23:18;;;;;;;46.80;22.10;;;;;;;-1.37;72.71;102008.27;130370;1267;108736;-78
2022/01/24 04:26:24;;;;;;;42.40;20.70;;;;;;;-1.39;72.54;102007.60;130418;1267;108688;-78
2022/01/24 04:29:29;;;;;;;45.10;23.10;;;;;;;-1.40;72.93;102011.63;130376;1267;107742;-77
2022/01/24 04:32:34;;;;;;;43.40;21.90;;;;;;;-1.42;72.71;102016.91;130324;1267;108700;-79
2022/01/24 04:35:40;;;;;;;45.70;22.40;;;;;;;-1.45;72.80;102014.36;130398;1267;108792;-78
2022/01/24 04:38:45;;;;;;;48.20;23.60;;;;;;;-1.48;72.84;102016.52;130435;1267;107819;-80
2022/01/24 04:41:55;;;;;;;46.80;24.40;;;;;;;-1.49;72.91;102014.09;130376;1267;108893;-76
2022/01/24 04:45:22;;;;;;;71.80;31.80;;;;;;;-1.52;72.78;102015.73;130450;1267;108893;-75
2022/01/24 04:51:54;;;;;;;;;;;;;;;-1.54;73.06;102014.91;130365;1267;108404;-77
2022/01/24 04:54:59;;;;;;;70.70;34.80;;;;;;;-1.53;73.04;102015.41;130428;1267;107915;-76
2022/01/24 04:58:05;;;;;;;87.30;39.20;;;;;;;-1.54;73.05;102019.10;130399;1267;107611;-78
2022/01/24 05:01:12;;;;;;;59.00;28.90;;;;;;;-1.54;72.84;102023.81;130371;1267;108943;-77
2022/01/24 05:04:17;;;;;;;59.80;29.50;;;;;;;-1.52;73.04;102024.62;130414;1267;108906;-79
2022/01/24 05:07:24;;;;;;;45.50;21.80;;;;;;;-1.44;73.11;102021.48;130457;1267;108966;-78
2022/01/24 05:10:35;;;;;;;44.30;20.40;;;;;;;-1.35;72.76;102023.41;130323;1267;108926;-76
2022/01/24 05:23:50;;;;;;;48.10;23.80;;;;;;;-1.14;72.94;102026.26;130500;1267;108776;-76
2022/01/24 05:26:56;;;;;;;47.80;23.30;;;;;;;-1.12;72.82;102029.19;130350;1266;108801;-76
2022/01/24 05:30:01;;;;;;;49.80;24.50;;;;;;;-1.13;72.85;102029.21;130350;1267;108938;-78
2022/01/24 05:33:07;;;;;;;49.60;23.60;;;;;;;-1.15;72.82;102028.20;130354;1267;108992;-77
2022/01/24 05:36:12;;;;;;;47.50;23.30;;;;;;;-1.22;72.69;102034.99;130438;1267;108889;-75
2022/01/24 05:39:17;;;;;;;44.30;22.40;;;;;;;-1.26;72.90;102031.76;130406;1267;108904;-77
2022/01/24 05:42:23;;;;;;;49.30;23.50;;;;;;;-1.27;72.94;102035.98;130389;1266;108869;-78
2022/01/24 05:45:28;;;;;;;44.90;22.60;;;;;;;-1.32;72.96;102033.80;130347;1267;108629;-77
2022/01/24 05:48:33;;;;;;;48.70;22.40;;;;;;;-1.34;73.04;102035.08;130403;1266;106917;-77
2022/01/24 05:51:39;;;;;;;50.50;24.10;;;;;;;-1.37;72.78;102037.59;130335;1267;106853;-78
2022/01/24 05:54:44;;;;;;;47.90;23.20;;;;;;;-1.39;73.02;102040.77;130474;1267;108923;-76
2022/01/24 05:57:52;;;;;;;55.50;25.00;;;;;;;-1.43;73.09;102042.77;130367;1267;106753;-77
2022/01/24 06:00:58;;;;;;;53.20;23.10;;;;;;;-1.46;73.07;102045.27;130398;1267;108746;-78
2022/01/24 06:04:03;;;;;;;49.90;22.60;;;;;;;-1.43;73.20;102048.18;130347;1267;108942;-75
2022/01/24 06:07:09;;;;;;;52.10;22.80;;;;;;;-1.36;73.12;102051.52;130342;1267;108725;-76
2022/01/24 06:10:14;;;;;;;52.90;23.90;;;;;;;-1.25;73.11;102052.67;130331;1267;108751;-78
2022/01/24 06:13:19;;;;;;;49.00;23.50;;;;;;;-1.12;73.00;102055.39;130340;1267;106747;-73
2022/01/24 06:16:24;;;;;;;53.20;23.80;;;;;;;-1.05;73.02;102060.64;130331;1267;108771;-76
2022/01/24 06:19:31;;;;;;;52.50;24.30;;;;;;;-1.02;73.00;102060.73;130403;1267;108718;-77
2022/01/24 06:22:37;;;;;;;52.20;24.40;;;;;;;-1.01;72.86;102059.85;130629;1267;109004;-78
2022/01/24 06:25:43;;;;;;;50.50;24.80;;;;;;;-1.00;72.96;102058.44;130477;1267;107938;-75
2022/01/24 06:28:49;;;;;;;49.60;23.00;;;;;;;-1.02;72.90;102055.14;130291;1267;108674;-75
2022/01/24 06:31:54;;;;;;;50.40;24.40;;;;;;;-1.02;72.96;102053.58;130329;1267;108492;-76
2022/01/24 06:34:59;;;;;;;49.80;24.00;;;;;;;-1.03;73.00;102049.59;130347;1267;108724;-75
2022/01/24 06:38:05;;;;;;;59.70;27.30;;;;;;;-1.02;72.78;102042.05;130432;1267;108931;-76
2022/01/24 06:41:10;;;;;;;63.80;30.70;;;;;;;-1.05;72.75;102043.86;130310;1267;108723;-76
2022/01/24 06:44:15;;;;;;;91.90;43.90;;;;;;;-1.09;72.81;102046.59;130368;1267;108623;-74
2022/01/24 06:47:22;;;;;;;58.70;29.20;;;;;;;-1.11;73.04;102050.81;130354;1267;108921;-73
2022/01/24 06:50:27;;;;;;;54.50;28.80;;;;;;;-1.13;72.83;102058.90;130379;1267;108707;-73
2022/01/24 06:53:33;;;;;;;56.80;28.20;;;;;;;-1.13;72.85;102063.09;130400;1266;109098;-74
2022/01/24 06:56:38;;;;;;;57.60;25.90;;;;;;;-1.14;72.78;102062.61;130311;1267;108729;-77
2022/01/24 06:59:45;;;;;;;52.20;24.80;;;;;;;-1.17;73.00;102067.38;130232;1267;191698;-75
2022/01/24 07:02:51;;;;;;;50.60;23.50;;;;;;;-1.15;73.15;102066.27;130389;1267;108646;-77
2022/01/24 07:05:56;;;;;;;46.80;21.20;;;;;;;-1.07;73.17;102066.45;130353;1267;108968;-74
2022/01/24 07:09:03;;;;;;;66.80;32.00;;;;;;;-0.98;72.94;102060.31;130401;1267;106925;-75
2022/01/24 07:12:10;;;;;;;50.10;24.70;;;;;;;-0.90;72.73;102058.73;130415;1267;108952;-73
2022/01/24 07:15:17;;;;;;;53.20;24.00;;;;;;;-0.86;72.76;102064.40;130393;1267;107268;-76
2022/01/24 07:21:46;;;;;;;50.70;25.30;;;;;;;-0.81;72.67;102066.02;130393;1267;108840;-75
2022/01/24 07:24:51;;;;;;;47.40;23.80;;;;;;;-0.79;72.73;102063.71;130379;1267;108733;-75
2022/01/24 07:27:57;;;;;;;46.00;23.40;;;;;;;-0.79;72.55;102065.64;130299;1267;108722;-75
2022/01/24 07:31:03;;;;;;;47.00;22.90;;;;;;;-0.79;72.58;102070.52;130336;1267;106890;-74
2022/01/24 07:34:08;;;;;;;50.40;25.20;;;;;;;-0.77;72.47;102067.17;130340;1267;108954;-76
2022/01/24 07:37:14;;;;;;;46.60;23.50;;;;;;;-0.75;72.56;102069.91;130398;1267;108915;-74
2022/01/24 07:40:21;;;;;;;51.10;24.20;;;;;;;-0.73;72.63;102073.20;130428;1267;108820;-73
2022/01/24 07:43:26;;;;;;;48.40;24.30;;;;;;;-0.72;72.34;102078.42;130374;1267;108573;-75
2022/01/24 07:46:33;;;;;;;52.50;24.10;;;;;;;-0.72;72.49;102090.65;130383;1267;108868;-75
2022/01/24 07:49:38;;;;;;;48.30;24.20;;;;;;;-0.72;72.44;102089.42;130509;1266;108953;-78
2022/01/24 07:52:44;;;;;;;53.00;25.80;;;;;;;-0.71;72.30;102084.32;130377;1267;108740;-76
2022/01/24 07:55:50;;;;;;;53.10;25.20;;;;;;;-0.68;72.57;102085.67;130396;1267;108858;-79
2022/01/24 07:58:56;;;;;;;55.10;26.60;;;;;;;-0.66;72.55;102088.23;130455;1267;107415;-77
2022/01/24 08:02:01;;;;;;;52.80;26.70;;;;;;;-0.59;72.64;102089.98;130409;1267;108657;-76
2022/01/24 08:05:08;;;;;;;54.60;26.30;;;;;;;-0.53;72.77;102085.11;130301;1267;108754;-76
2022/01/24 08:08:14;;;;;;;63.20;27.90;;;;;;;-0.43;72.48;102080.69;130389;1269;108764;-80
2022/01/24 08:11:19;;;;;;;59.00;26.50;;;;;;;-0.32;72.71;102083.58;130341;1267;108748;-77
2022/01/24 08:14:27;;;;;;;57.10;26.30;;;;;;;-0.20;72.38;102082.38;130345;1267;108810;-73
2022/01/24 08:17:32;;;;;;;54.40;27.50;;;;;;;-0.06;72.46;102077.48;130372;1267;108718;-76
2022/01/24 08:20:39;;;;;;;61.80;30.50;;;;;;;0.06;72.24;102074.54;130406;1267;108745;-80
2022/01/24 08:23:44;;;;;;;66.70;32.80;;;;;;;0.14;72.25;102074.15;130360;1267;108944;-77
2022/01/24 08:26:50;;;;;;;61.60;29.40;;;;;;;0.21;72.11;102072.02;130341;1268;108613;-75
2022/01/24 08:29:55;;;;;;;55.60;28.10;;;;;;;0.24;71.88;102071.78;130377;1268;108735;-76
2022/01/24 08:33:01;;;;;;;60.50;30.20;;;;;;;0.23;72.04;102077.23;130367;1267;108866;-73
2022/01/24 08:36:07;;;;;;;55.60;27.40;;;;;;;0.24;71.90;102074.41;130389;1266;108845;-77
2022/01/24 08:39:12;;;;;;;61.80;28.90;;;;;;;0.24;72.10;102077.39;130371;1267;108677;-78
2022/01/24 08:42:24;;;;;;;59.20;28.70;;;;;;;0.24;72.06;102082.30;130365;1267;107702;-75
2022/01/24 08:45:48;;;;;;;57.70;28.20;;;;;;;0.25;71.95;102078.95;130534;1268;108177;-77
2022/01/24 08:48:54;;;;;;;53.70;27.80;;;;;;;0.22;71.78;102074.66;130328;1267;108870;-80
2022/01/24 08:52:00;;;;;;;58.10;28.50;;;;;;;0.24;72.05;102070.05;130369;1268;108791;-77
2022/01/24 08:55:07;;;;;;;69.30;36.20;;;;;;;0.29;72.07;102074.79;130367;1268;109671;-76
2022/01/24 08:58:15;;;;;;;62.00;32.00;;;;;;;0.30;71.93;102076.52;130336;1267;108986;-77
2022/01/24 09:01:20;;;;;;;55.10;26.50;;;;;;;0.32;71.82;102075.76;130385;1268;108699;-77
2022/01/24 09:04:25;;;;;;;54.30;26.80;;;;;;;0.30;71.73;102074.07;130376;1268;108831;-76
2022/01/24 09:07:31;;;;;;;55.90;27.60;;;;;;;0.30;71.89;102074.06;130422;1267;108832;-78
2022/01/24 09:10:39;;;;;;;54.40;27.40;;;;;;;0.29;71.53;102072.69;130400;1267;108852;-78
2022/01/24 09:13:45;;;;;;;57.10;27.70;;;;;;;0.27;71.57;102076.61;130358;1267;109019;-79
2022/01/24 09:16:50;;;;;;;51.30;26.90;;;;;;;0.29;71.56;102077.43;130334;1267;108666;-79
2022/01/24 09:19:56;;;;;;;50.90;26.60;;;;;;;0.31;71.61;102073.86;130333;1267;108877;-76
2022/01/24 09:23:01;;;;;;;54.10;27.70;;;;;;;0.31;71.41;102075.27;130323;1267;107752;-76
2022/01/24 09:26:07;;;;;;;57.90;27.70;;;;;;;0.31;71.75;102073.88;130407;1268;108766;-80
2022/01/24 09:29:12;;;;;;;61.40;30.00;;;;;;;0.35;71.55;102072.71;130348;1267;108776;-77
2022/01/24 09:32:17;;;;;;;60.70;28.50;;;;;;;0.38;71.64;102076.30;130342;1268;108748;-77
2022/01/24 09:35:23;;;;;;;51.70;25.40;;;;;;;0.49;71.50;102074.95;130414;1268;108939;-76
2022/01/24 09:38:31;;;;;;;60.50;29.90;;;;;;;0.63;71.56;102074.72;130419;1268;108836;-77
2022/01/24 09:41:37;;;;;;;60.30;29.70;;;;;;;0.80;71.26;102071.26;130407;1268;108811;-77
2022/01/24 09:44:42;;;;;;;58.70;29.70;;;;;;;0.95;71.41;102068.00;130421;1267;107645;-76
2022/01/24 09:47:48;;;;;;;56.60;28.40;;;;;;;1.10;71.37;102062.64;130410;1267;108649;-78
2022/01/24 09:50:54;;;;;;;58.00;29.70;;;;;;;1.22;71.21;102059.45;130448;1268;108964;-75
2022/01/24 09:54:03;;;;;;;59.20;28.90;;;;;;;1.29;70.93;102053.27;130422;1268;108652;-75
2022/01/24 09:57:09;;;;;;;55.40;29.30;;;;;;;1.33;70.99;102061.73;130415;1268;108958;-76
2022/01/24 10:00:18;;;;;;;54.90;28.70;;;;;;;1.40;71.08;102062.90;130396;1268;108813;-74
2022/01/24 10:03:24;;;;;;;57.20;30.70;;;;;;;1.47;70.91;102059.88;130372;1268;108614;-73
2022/01/24 10:06:49;;;;;;;59.30;30.20;;;;;;;1.48;70.73;102051.43;130432;1268;108670;-75
2022/01/24 10:09:56;;;;;;;57.00;29.90;;;;;;;1.48;70.65;102052.32;130362;1268;108902;-75
2022/01/24 10:16:45;;;;;;;76.30;35.90;;;;;;;1.64;70.54;102047.02;130370;1268;108806;-74
2022/01/24 10:19:50;;;;;;;76.60;40.60;;;;;;;1.67;70.64;102042.04;130435;1268;108691;-74
2022/01/24 10:23:24;;;;;;;69.70;37.30;;;;;;;1.76;70.87;102038.74;130356;1268;108802;-74
2022/01/24 10:26:29;;;;;;;62.00;30.90;;;;;;;1.86;70.47;102036.65;130264;1267;108848;-76
2022/01/24 10:29:35;;;;;;;53.00;28.70;;;;;;;1.87;70.42;102035.56;130411;1268;108812;-74
2022/01/24 10:32:44;;;;;;;55.70;28.90;;;;;;;1.91;70.46;102030.33;130404;1268;108867;-77
2022/01/24 10:35:50;;;;;;;57.40;29.80;;;;;;;1.98;70.50;102032.73;130474;1266;109226;-77
2022/01/24 10:39:12;;;;;;;57.00;28.50;;;;;;;1.99;70.28;102035.15;130372;1267;108860;-76
2022/01/24 10:42:32;;;;;;;;;;;;;;;2.04;70.37;102038.14;130451;1267;108733;-74
2022/01/24 10:45:44;;;;;;;48.80;25.40;;;;;;;2.11;70.31;102037.33;130414;1268;107040;-74
2022/01/24 10:49:00;;;;;;;49.20;25.70;;;;;;;2.19;70.18;102033.55;130420;1268;108841;-76
2022/01/24 10:52:13;;;;;;;49.50;24.90;;;;;;;2.26;70.32;102028.39;130416;1268;107273;-74
2022/01/24 10:55:20;;;;;;;48.30;26.30;;;;;;;2.36;70.07;102023.96;130402;1268;108664;-79
2022/01/24 10:58:36;;;;;;;42.70;23.70;;;;;;;2.46;69.88;102023.27;130444;1268;108528;-78
2022/01/24 11:01:43;;;;;;;41.80;23.60;;;;;;;2.48;69.92;101998.08;130476;1268;106604;-84
2022/01/24 11:04:49;;;;;;;43.50;23.30;;;;;;;2.49;69.95;102002.23;130488;1267;107724;-81
2022/01/24 11:07:57;;;;;;;42.50;24.30;;;;;;;2.53;69.68;101994.86;130696;1268;108665;-80
2022/01/24 11:11:02;;;;;;;44.20;24.20;;;;;;;2.53;69.53;101986.45;130743;1267;108737;-83
2022/01/24 11:14:09;;;;;;;44.00;24.10;;;;;;;2.53;69.82;101981.17;130610;1267;109121;-81
2022/01/24 11:17:19;;;;;;;44.80;24.20;;;;;;;2.59;69.80;101975.70;130538;1267;107735;-79
2022/01/24 11:20:30;;;;;;;47.20;24.50;;;;;;;2.66;69.70;101976.45;130473;1267;108704;-79
2022/01/24 11:23:40;;;;;;;45.10;26.10;;;;;;;2.73;69.75;101974.43;130358;1266;108913;-81
2022/01/24 11:26:46;;;;;;;45.50;24.70;;;;;;;2.79;69.45;101975.08;130464;1267;108813;-78
2022/01/24 11:29:54;;;;;;;46.40;25.80;;;;;;;2.79;69.55;101966.49;130394;1267;106749;-78
2022/01/24 11:33:04;;;;;;;43.70;25.40;;;;;;;2.76;69.44;101963.95;130391;1267;108676;-78
2022/01/24 11:36:12;;;;;;;45.30;25.70;;;;;;;2.72;69.41;101964.62;130472;1267;108671;-79
2022/01/24 11:39:24;;;;;;;46.60;25.50;;;;;;;2.70;69.52;101957.35;130353;1267;108810;-79
2022/01/24 11:42:34;;;;;;;46.60;26.00;;;;;;;2.69;69.43;101958.25;130392;1267;108755;-81
2022/01/24 11:45:55;;;;;;;48.30;26.30;;;;;;;2.69;69.41;101957.90;130394;1267;108897;-78
2022/01/24 11:49:06;;;;;;;47.60;27.00;;;;;;;2.69;69.48;101957.55;130426;1267;106839;-79
2022/01/24 11:52:14;;;;;;;47.40;26.30;;;;;;;2.70;69.34;101955.58;130480;1267;108765;-78
2022/01/24 11:55:33;;;;;;;48.80;27.20;;;;;;;2.69;69.29;101954.55;130367;1267;109014;-77
2022/01/24 11:58:40;;;;;;;46.90;25.70;;;;;;;2.67;69.44;101958.67;130367;1267;109036;-81
2022/01/24 12:01:51;;;;;;;46.80;25.90;;;;;;;2.67;69.48;101953.42;130338;1267;109053;-79
2022/01/24 12:05:00;;;;;;;53.30;26.90;;;;;;;2.68;69.52;101948.80;130350;1267;109082;-80
2022/01/24 12:08:10;;;;;;;48.50;28.00;;;;;;;2.65;69.47;101947.01;130344;1267;108690;-80
2022/01/24 12:11:22;;;;;;;50.30;28.20;;;;;;;2.66;69.36;101947.66;130606;1267;107389;-81
2022/01/24 12:14:38;;;;;;;52.40;27.40;;;;;;;2.69;69.53;101942.10;130980;1267;108754;-81
2022/01/24 12:17:52;;;;;;;52.60;29.00;;;;;;;2.72;69.54;101943.73;130592;1267;106661;-82
2022/01/24 12:21:07;;;;;;;51.50;28.90;;;;;;;2.72;69.42;101939.16;130467;1267;108901;-83
2022/01/24 12:24:15;;;;;;;57.20;29.90;;;;;;;2.73;69.60;101941.05;130450;1267;109885;-82
2022/01/24 12:27:20;;;;;;;50.60;29.40;;;;;;;2.72;69.32;101936.52;130467;1267;108930;-82
2022/01/24 12:31:02;;;;;;;52.80;30.40;;;;;;;2.71;69.35;101933.77;130528;1267;108837;-79
2022/01/24 12:34:35;;;;;;;52.70;29.60;;;;;;;2.70;69.37;101924.12;130598;1267;108629;-80
2022/01/24 12:37:38;;;;;;;;;;;;;;;2.69;69.30;101922.57;130498;1265;108853;-83
2022/01/24 12:40:45;;;;;;;52.10;29.90;;;;;;;2.68;69.30;101920.16;130581;1267;108698;-81
2022/01/24 12:43:57;;;;;;;57.10;31.40;;;;;;;2.66;69.27;101914.79;130668;1267;108602;-81
2022/01/24 12:47:03;;;;;;;58.60;31.50;;;;;;;2.65;69.20;101909.05;130717;1267;108894;-82
2022/01/24 12:50:10;;;;;;;62.30;32.00;;;;;;;2.60;69.19;101907.50;130720;1266;108723;-79
2022/01/24 12:53:16;;;;;;;55.20;30.90;;;;;;;2.54;69.37;101900.15;130576;1265;108696;-78
2022/01/24 12:56:27;;;;;;;56.50;30.70;;;;;;;2.54;69.48;101902.25;130548;1267;108944;-81
2022/01/24 12:59:34;;;;;;;56.10;31.00;;;;;;;2.54;69.35;101899.80;130670;1267;108637;-84
2022/01/24 13:02:40;;;;;;;61.80;31.20;;;;;;;2.49;69.23;101900.36;130653;1266;108586;-84
2022/01/24 13:05:46;;;;;;;57.00;31.20;;;;;;;2.45;69.35;101895.44;130702;1267;108432;-83
2022/01/24 13:08:58;;;;;;;61.80;31.80;;;;;;;2.42;69.26;101897.84;130689;1267;108774;-87
2022/01/24 13:12:07;;;;;;;60.20;31.60;;;;;;;2.36;69.40;101896.45;130631;1267;107574;-82
2022/01/24 13:15:25;;;;;;;63.70;32.80;;;;;;;2.34;69.32;101897.05;130597;1267;108769;-82
2022/01/24 13:22:03;;;;;;;63.10;33.60;;;;;;;2.34;69.28;101896.19;130761;1267;108833;-77
2022/01/24 13:25:15;;;;;;;60.00;32.50;;;;;;;2.33;69.46;101893.59;130517;1267;108515;-84
2022/01/24 13:28:20;;;;;;;61.30;32.40;;;;;;;2.33;69.31;101896.77;130931;1267;109607;-86
2022/01/24 13:31:26;;;;;;;65.30;33.60;;;;;;;2.31;69.50;101897.20;130567;1268;107757;-85
2022/01/24 13:34:31;;;;;;;69.00;35.40;;;;;;;2.29;69.29;101898.16;130507;1268;107714;-87
2022/01/24 13:37:40;;;;;;;74.40;37.70;;;;;;;2.27;69.32;101894.01;130365;1268;107523;-87
2022/01/24 13:40:54;;;;;;;66.10;33.60;;;;;;;2.26;69.37;101890.88;130479;1267;107589;-84
2022/01/24 13:44:02;;;;;;;66.20;33.60;;;;;;;2.28;69.46;101885.04;130588;1267;108704;-85
2022/01/24 13:47:11;;;;;;;58.40;29.10;;;;;;;2.30;69.40;101882.30;130528;1267;106888;-86
2022/01/24 13:50:19;;;;;;;81.30;42.20;;;;;;;2.38;69.47;101880.78;130417;1267;107712;-82
2022/01/24 13:53:40;;;;;;;72.40;39.50;;;;;;;2.46;69.45;101877.30;130621;1267;107774;-78
2022/01/24 13:56:48;;;;;;;68.00;35.60;;;;;;;2.51;69.27;101869.19;130718;1267;107634;-86
2022/01/24 13:59:53;;;;;;;103.00;51.00;;;;;;;2.52;69.07;101870.73;130616;1267;108682;-84
2022/01/24 14:03:12;;;;;;;253.20;121.30;;;;;;;2.50;69.24;101871.86;131466;1267;108951;-85
2022/01/24 14:06:19;;;;;;;106.70;52.20;;;;;;;2.48;69.12;101872.46;130549;1266;108734;-85
2022/01/24 14:09:35;;;;;;;72.70;37.20;;;;;;;2.47;69.24;101876.19;130494;1267;108681;-79
2022/01/24 14:12:53;;;;;;;70.00;35.60;;;;;;;2.43;69.15;101877.60;130541;1267;107438;-83
2022/01/24 14:16:06;;;;;;;104.00;54.60;;;;;;;2.38;69.20;101881.45;130450;1267;108523;-86
2022/01/24 14:19:12;;;;;;;71.30;37.70;;;;;;;2.32;69.46;101883.30;130418;1267;109606;-81
2022/01/24 14:22:17;;;;;;;73.90;37.90;;;;;;;2.29;69.38;101883.75;130462;1267;108747;-80
2022/01/24 14:25:25;;;;;;;72.00;38.50;;;;;;;2.28;69.50;101885.73;130453;1267;108722;-79
2022/01/24 14:28:31;;;;;;;75.50;37.30;;;;;;;2.25;69.42;101893.91;130504;1267;108772;-84
2022/01/24 14:31:37;;;;;;;71.60;36.30;;;;;;;2.21;69.39;101892.48;130535;1266;108870;-83
2022/01/24 14:34:42;;;;;;;71.20;36.90;;;;;;;2.18;69.41;101897.36;130581;1267;108922;-82
2022/01/24 14:37:52;;;;;;;74.00;37.30;;;;;;;2.13;69.54;101896.83;130692;1267;107705;-83
2022/01/24 14:41:01;;;;;;;72.20;38.00;;;;;;;2.09;69.55;101900.33;130666;1267;108724;-82
2022/01/24 14:47:34;;;;;;;72.40;37.80;;;;;;;2.02;69.65;101900.58;130555;1267;108910;-83
2022/01/24 14:50:39;;;;;;;77.10;40.10;;;;;;;1.98;69.59;101892.30;130463;1266;108621;-83
2022/01/24 14:53:45;;;;;;;75.30;37.60;;;;;;;1.96;69.64;101888.52;130457;1266;108885;-83
2022/01/24 14:56:52;;;;;;;75.60;38.30;;;;;;;1.94;69.70;101890.17;130521;1267;108555;-82
2022/01/24 14:59:58;;;;;;;88.10;41.30;;;;;;;1.94;69.75;101888.60;130677;1267;107651;-82
2022/01/24 15:03:03;;;;;;;86.50;41.70;;;;;;;1.98;69.81;101889.50;130495;1267;108714;-83
2022/01/24 15:06:09;;;;;;;67.80;32.50;;;;;;;2.04;69.72;101884.38;130567;1267;108957;-83
2022/01/24 15:09:17;;;;;;;82.50;39.60;;;;;;;2.09;69.78;101881.73;130621;1267;108997;-81
2022/01/24 15:12:23;;;;;;;81.30;41.20;;;;;;;2.17;69.68;101881.39;130485;1267;108899;-87
2022/01/24 15:15:30;;;;;;;75.30;39.20;;;;;;;2.21;69.79;101879.85;130439;1267;107684;-83
2022/01/24 15:25:25;;;;;;;77.60;38.80;;;;;;;2.22;69.68;101864.02;130624;1268;107073;-84
2022/01/24 15:28:30;;;;;;;83.70;41.60;;;;;;;2.18;69.66;101859.78;130726;1268;107616;-84